Time;durP1;ratioP1;P1;durP2;ratioP2;P2;SDS_P1;SDS_P2;PMS_P1;PMS_P2;Temp;Humidity;BMP_temperature;BMP_pressure;BME280_temperature;BME280_humidity;BME280_pressure;Samples;Min_cycle;Max_cycle;Signal;HPM_P1;HPM_P2
2022/09/27 00:01:47;;;;;;;1.63;0.98;;;;;;;;;;7386539;19;19998;-69
2022/09/27 00:04:25;;;;;;;2.10;0.90;;;;;;;;;;7389400;19;19998;-70
2022/09/27 00:06:53;;;;;;;1.30;1.20;;;;;;;;;;7388220;19;20002;-70
2022/09/27 00:09:18;;;;;;;2.75;0.90;;;;;;;;;;7389418;19;20333;-69
2022/09/27 00:11:44;;;;;;;1.23;1.10;;;;;;;;;;7388172;19;20028;-70
2022/09/27 00:14:13;;;;;;;1.98;0.95;;;;;;;;;;7390146;19;20023;-71
2022/09/27 00:16:41;;;;;;;1.25;0.80;;;;;;;;;;7389398;19;19995;-70
2022/09/27 00:19:12;;;;;;;1.17;1.02;;;;;;;;;;7390181;19;20333;-70
2022/09/27 00:21:38;;;;;;;3.05;0.90;;;;;;;;;;7388387;19;19994;-70
2022/09/27 00:24:04;;;;;;;1.45;1.10;;;;;;;;;;7390056;19;20029;-70
2022/09/27 00:26:30;;;;;;;0.80;0.80;;;;;;;;;;7389844;19;20085;-72
2022/09/27 00:28:55;;;;;;;1.05;1.00;;;;;;;;;;7388238;19;20010;-71
2022/09/27 00:31:28;;;;;;;2.42;1.00;;;;;;;;;;7387835;19;20705;-70
2022/09/27 00:33:54;;;;;;;1.27;1.17;;;;;;;;;;7389244;19;19998;-71
2022/09/27 00:36:22;;;;;;;1.83;1.30;;;;;;;;;;7389253;19;20003;-70
2022/09/27 00:38:47;;;;;;;2.05;1.20;;;;;;;;;;7386951;19;20003;-71
2022/09/27 00:41:20;;;;;;;0.88;0.88;;;;;;;;;;7387650;19;20005;-71
2022/09/27 00:43:49;;;;;;;1.30;1.20;;;;;;;;;;7389807;19;20109;-71
2022/09/27 00:46:20;;;;;;;1.30;1.13;;;;;;;;;;7389581;19;20397;-70
2022/09/27 00:48:46;;;;;;;0.93;0.93;;;;;;;;;;7387705;19;19999;-69
2022/09/27 00:51:12;;;;;;;1.00;0.90;;;;;;;;;;7387284;19;20014;-70
2022/09/27 00:53:48;;;;;;;0.85;0.85;;;;;;;;;;7388464;19;20476;-71
2022/09/27 00:56:21;;;;;;;1.90;1.25;;;;;;;;;;7388495;19;20003;-70
2022/09/27 00:58:51;;;;;;;4.68;1.67;;;;;;;;;;7388535;19;20002;-70
2022/09/27 01:01:17;;;;;;;3.67;1.10;;;;;;;;;;7387493;19;20453;-71
2022/09/27 01:04:01;;;;;;;1.13;1.00;;;;;;;;;;7386663;19;19994;-70
2022/09/27 01:06:26;;;;;;;1.95;0.90;;;;;;;;;;7388243;19;20022;-71
2022/09/27 01:08:51;;;;;;;1.70;1.20;;;;;;;;;;7387899;19;20528;-70
2022/09/27 01:11:25;;;;;;;1.23;1.05;;;;;;;;;;7385507;19;20346;-71
2022/09/27 01:14:36;;;;;;;3.20;1.08;;;;;;;;;;7383453;19;20023;-70
2022/09/27 01:17:20;;;;;;;0.98;0.90;;;;;;;;;;7380581;19;19999;-70
2022/09/27 01:20:06;;;;;;;4.30;1.10;;;;;;;;;;7384487;19;20437;-69
2022/09/27 01:23:07;;;;;;;4.22;1.10;;;;;;;;;;7379618;19;20428;-71
2022/09/27 01:25:48;;;;;;;3.30;1.30;;;;;;;;;;7384368;19;20456;-71
2022/09/27 01:28:25;;;;;;;1.00;1.00;;;;;;;;;;7385258;19;20083;-71
2022/09/27 01:31:18;;;;;;;2.28;1.00;;;;;;;;;;7387521;19;20404;-71
2022/09/27 01:34:04;;;;;;;3.40;1.30;;;;;;;;;;7388323;19;20003;-70
2022/09/27 01:37:05;;;;;;;2.78;1.27;;;;;;;;;;7387286;19;20001;-71
2022/09/27 01:39:44;;;;;;;2.58;1.40;;;;;;;;;;7384597;19;20294;-71
2022/09/27 01:42:45;;;;;;;2.55;1.30;;;;;;;;;;7383313;19;20025;-70
2022/09/27 01:45:22;;;;;;;4.32;1.60;;;;;;;;;;7385103;19;19995;-70
2022/09/27 01:47:55;;;;;;;1.98;1.38;;;;;;;;;;7384052;19;19999;-70
2022/09/27 01:50:28;;;;;;;3.80;1.70;;;;;;;;;;7388425;19;20535;-71
2022/09/27 01:52:59;;;;;;;3.88;1.35;;;;;;;;;;7384265;19;20476;-71
2022/09/27 01:55:30;;;;;;;2.75;1.45;;;;;;;;;;7389937;19;20502;-71
2022/09/27 01:58:05;;;;;;;5.45;1.67;;;;;;;;;;7386414;19;19999;-70
2022/09/27 02:00:32;;;;;;;5.60;2.05;;;;;;;;;;7386633;19;20014;-72
2022/09/27 02:03:04;;;;;;;3.92;1.85;;;;;;;;;;7386248;19;19999;-71
2022/09/27 02:06:11;;;;;;;7.70;1.90;;;;;;;;;;7386580;19;20002;-70
2022/09/27 02:08:47;;;;;;;7.20;1.60;;;;;;;;;;7382361;19;20517;-70
2022/09/27 02:11:14;;;;;;;3.38;1.55;;;;;;;;;;7385257;19;20413;-71
2022/09/27 02:13:49;;;;;;;3.38;1.45;;;;;;;;;;7386225;19;20009;-69
2022/09/27 02:16:42;;;;;;;4.47;1.60;;;;;;;;;;7386458;19;20062;-70
2022/09/27 02:19:19;;;;;;;4.28;1.60;;;;;;;;;;7386289;19;20003;-71
2022/09/27 02:21:58;;;;;;;4.13;1.50;;;;;;;;;;7384580;19;20130;-71
2022/09/27 02:24:35;;;;;;;4.13;1.67;;;;;;;;;;7386139;19;20006;-70
2022/09/27 02:27:09;;;;;;;9.65;1.95;;;;;;;;;;7386783;19;20385;-71
2022/09/27 02:29:42;;;;;;;5.25;1.70;;;;;;;;;;7385162;19;20003;-70
2022/09/27 02:32:07;;;;;;;2.00;1.40;;;;;;;;;;7384439;19;19999;-71
2022/09/27 02:34:36;;;;;;;4.15;1.27;;;;;;;;;;7384415;19;20006;-71
2022/09/27 02:37:01;;;;;;;5.90;1.80;;;;;;;;;;7384318;19;19998;-70
2022/09/27 02:39:27;;;;;;;3.67;1.50;;;;;;;;;;7385737;19;20005;-69
2022/09/27 02:41:57;;;;;;;5.30;1.77;;;;;;;;;;7383695;19;20345;-71
2022/09/27 02:44:23;;;;;;;3.63;1.63;;;;;;;;;;7385448;19;20009;-71
2022/09/27 02:47:21;;;;;;;2.85;1.48;;;;;;;;;;7382977;19;19999;-70
2022/09/27 02:50:17;;;;;;;2.70;1.60;;;;;;;;;;7383426;19;20520;-71
2022/09/27 02:52:50;;;;;;;1.95;1.27;;;;;;;;;;7385944;19;20253;-70
2022/09/27 02:55:15;;;;;;;3.17;1.30;;;;;;;;;;7383472;19;20445;-69
2022/09/27 02:58:17;;;;;;;2.85;1.63;;;;;;;;;;7385212;19;20005;-69
2022/09/27 03:00:48;;;;;;;1.83;1.20;;;;;;;;;;7384867;19;20532;-71
2022/09/27 03:03:32;;;;;;;2.35;1.20;;;;;;;;;;7392012;19;20104;-70
2022/09/27 03:06:05;;;;;;;2.58;1.00;;;;;;;;;;7392521;19;20026;-70
2022/09/27 03:08:31;;;;;;;1.17;0.90;;;;;;;;;;7388081;19;20017;-70
2022/09/27 03:10:56;;;;;;;2.15;1.20;;;;;;;;;;7390970;19;20022;-70
2022/09/27 03:13:21;;;;;;;0.82;0.82;;;;;;;;;;7391600;19;20356;-72
2022/09/27 03:15:47;;;;;;;5.95;1.25;;;;;;;;;;7390382;19;20006;-71
2022/09/27 03:18:12;;;;;;;1.33;1.00;;;;;;;;;;7391862;19;20007;-71
2022/09/27 03:20:37;;;;;;;1.50;0.90;;;;;;;;;;7391241;19;20006;-71
2022/09/27 03:23:03;;;;;;;1.77;1.13;;;;;;;;;;7391113;19;19999;-72
2022/09/27 03:25:28;;;;;;;2.25;1.00;;;;;;;;;;7391423;19;19995;-71
2022/09/27 03:27:53;;;;;;;1.50;0.85;;;;;;;;;;7388063;19;20005;-70
2022/09/27 03:30:19;;;;;;;1.10;1.00;;;;;;;;;;7391006;19;19999;-70
2022/09/27 03:32:44;;;;;;;2.13;1.05;;;;;;;;;;7389412;19;20440;-71
2022/09/27 03:35:11;;;;;;;1.20;0.70;;;;;;;;;;7391301;19;20003;-70
2022/09/27 03:37:37;;;;;;;1.15;0.80;;;;;;;;;;7393288;19;19999;-70
2022/09/27 03:40:03;;;;;;;0.70;0.55;;;;;;;;;;7394145;19;20001;-71
2022/09/27 03:42:29;;;;;;;0.70;0.70;;;;;;;;;;7386877;19;19999;-72
2022/09/27 03:44:54;;;;;;;4.22;0.77;;;;;;;;;;7391234;19;20023;-71
2022/09/27 03:47:19;;;;;;;0.98;0.52;;;;;;;;;;7390280;19;20528;-71
2022/09/27 03:49:45;;;;;;;1.73;0.65;;;;;;;;;;7391923;19;19995;-70
2022/09/27 03:52:11;;;;;;;0.73;0.73;;;;;;;;;;7386815;19;20077;-71
2022/09/27 03:54:37;;;;;;;1.73;0.55;;;;;;;;;;7389463;19;20028;-71
2022/09/27 03:57:03;;;;;;;0.90;0.55;;;;;;;;;;7388957;19;20587;-71
2022/09/27 03:59:28;;;;;;;0.80;0.80;;;;;;;;;;7394396;19;19997;-71
2022/09/27 04:01:55;;;;;;;1.73;0.63;;;;;;;;;;7387715;19;20083;-64
2022/09/27 04:04:20;;;;;;;1.23;0.60;;;;;;;;;;7388561;19;20491;-65
2022/09/27 04:06:46;;;;;;;1.48;0.93;;;;;;;;;;7391799;19;20003;-66
2022/09/27 04:09:29;;;;;;;0.88;0.47;;;;;;;;;;7395239;19;19995;-65
2022/09/27 04:11:54;;;;;;;1.13;0.65;;;;;;;;;;7387383;19;20003;-66
2022/09/27 04:14:19;;;;;;;1.40;0.65;;;;;;;;;;7389214;19;20001;-67
2022/09/27 04:16:45;;;;;;;0.35;0.35;;;;;;;;;;7390867;19;20562;-67
2022/09/27 04:19:10;;;;;;;1.02;0.70;;;;;;;;;;7391781;19;20349;-67
2022/09/27 04:21:36;;;;;;;1.75;0.50;;;;;;;;;;7388107;19;19998;-66
2022/09/27 04:24:05;;;;;;;0.65;0.60;;;;;;;;;;7388710;19;20023;-66
2022/09/27 04:26:30;;;;;;;1.17;0.45;;;;;;;;;;7386787;19;20002;-66
2022/09/27 04:28:56;;;;;;;1.70;0.68;;;;;;;;;;7385685;19;20022;-66
2022/09/27 04:31:22;;;;;;;0.50;0.50;;;;;;;;;;7388554;19;20010;-67
2022/09/27 04:33:47;;;;;;;0.60;0.60;;;;;;;;;;7393062;19;20005;-67
2022/09/27 04:36:27;;;;;;;0.75;0.40;;;;;;;;;;7392506;19;20030;-69
2022/09/27 04:38:54;;;;;;;0.60;0.60;;;;;;;;;;7395641;19;20002;-65
2022/09/27 04:41:20;;;;;;;1.60;0.70;;;;;;;;;;7394184;19;20166;-66
2022/09/27 04:43:46;;;;;;;1.35;0.80;;;;;;;;;;7396446;19;20480;-66
2022/09/27 04:46:12;;;;;;;1.00;0.80;;;;;;;;;;7389460;19;19995;-66
2022/09/27 04:48:38;;;;;;;1.15;1.10;;;;;;;;;;7388003;19;20356;-66
2022/09/27 04:51:04;;;;;;;0.63;0.63;;;;;;;;;;7389464;19;20014;-67
2022/09/27 04:53:30;;;;;;;0.75;0.50;;;;;;;;;;7395418;19;20001;-66
2022/09/27 04:55:56;;;;;;;0.82;0.73;;;;;;;;;;7390702;19;20003;-66
2022/09/27 04:58:22;;;;;;;1.95;0.80;;;;;;;;;;7391791;19;20481;-66
2022/09/27 05:00:51;;;;;;;1.05;0.95;;;;;;;;;;7388958;19;20011;-66
2022/09/27 05:03:18;;;;;;;1.15;0.80;;;;;;;;;;7388474;19;20472;-65
2022/09/27 05:05:43;;;;;;;1.92;0.80;;;;;;;;;;7387545;19;20013;-65
2022/09/27 05:08:09;;;;;;;0.70;0.70;;;;;;;;;;7391943;19;20345;-65
2022/09/27 05:10:35;;;;;;;5.22;1.40;;;;;;;;;;7388749;19;20017;-65
2022/09/27 05:13:00;;;;;;;0.90;0.90;;;;;;;;;;7393217;19;19998;-65
2022/09/27 05:15:25;;;;;;;0.75;0.65;;;;;;;;;;7390449;19;20010;-67
2022/09/27 05:17:51;;;;;;;0.60;0.60;;;;;;;;;;7393056;19;20001;-66
2022/09/27 05:20:17;;;;;;;0.75;0.75;;;;;;;;;;7393519;19;20472;-66
2022/09/27 05:22:43;;;;;;;0.75;0.75;;;;;;;;;;7391942;19;19999;-66
2022/09/27 05:25:08;;;;;;;0.77;0.77;;;;;;;;;;7391818;19;20006;-66
2022/09/27 05:27:34;;;;;;;1.05;0.90;;;;;;;;;;7390616;19;20032;-68
2022/09/27 05:30:00;;;;;;;1.10;1.00;;;;;;;;;;7393078;19;20451;-66
2022/09/27 05:32:26;;;;;;;0.85;0.85;;;;;;;;;;7385846;19;20002;-66
2022/09/27 05:34:55;;;;;;;1.10;1.00;;;;;;;;;;7390215;19;20006;-65
2022/09/27 05:37:20;;;;;;;1.50;1.00;;;;;;;;;;7388377;19;20751;-66
2022/09/27 05:39:46;;;;;;;1.38;1.10;;;;;;;;;;7391132;19;19999;-65
2022/09/27 05:42:14;;;;;;;4.60;1.15;;;;;;;;;;7388119;19;20013;-65
2022/09/27 05:44:40;;;;;;;0.77;0.77;;;;;;;;;;7384995;19;20130;-65
2022/09/27 05:47:05;;;;;;;1.50;1.20;;;;;;;;;;7389328;19;20014;-67
2022/09/27 05:49:31;;;;;;;1.10;1.00;;;;;;;;;;7385521;19;20017;-67
2022/09/27 05:51:57;;;;;;;1.10;1.00;;;;;;;;;;7385265;19;20534;-67
2022/09/27 05:54:22;;;;;;;1.17;0.82;;;;;;;;;;7385140;19;19995;-67
2022/09/27 05:56:47;;;;;;;4.47;1.40;;;;;;;;;;7389605;19;20027;-67
2022/09/27 05:59:16;;;;;;;0.70;0.70;;;;;;;;;;7384877;19;20031;-66
2022/09/27 06:01:42;;;;;;;1.40;0.82;;;;;;;;;;7389139;19;20110;-66
2022/09/27 06:04:08;;;;;;;1.77;1.00;;;;;;;;;;7390876;19;20022;-67
2022/09/27 06:06:36;;;;;;;1.13;1.00;;;;;;;;;;7388594;19;20532;-66
2022/09/27 06:09:02;;;;;;;0.85;0.85;;;;;;;;;;7390684;19;20009;-66
2022/09/27 06:11:30;;;;;;;1.63;0.98;;;;;;;;;;7388410;19;20007;-66
2022/09/27 06:14:05;;;;;;;1.77;0.82;;;;;;;;;;7391471;19;20003;-68
2022/09/27 06:16:33;;;;;;;0.70;0.60;;;;;;;;;;7390028;19;20064;-67
2022/09/27 06:18:58;;;;;;;0.80;0.80;;;;;;;;;;7392247;19;20006;-65
2022/09/27 06:21:24;;;;;;;2.58;0.68;;;;;;;;;;7389289;19;20027;-67
2022/09/27 06:23:49;;;;;;;0.70;0.70;;;;;;;;;;7392071;19;20123;-67
2022/09/27 06:26:15;;;;;;;1.40;0.80;;;;;;;;;;7391301;19;19994;-67
2022/09/27 06:28:41;;;;;;;0.95;0.70;;;;;;;;;;7389225;19;20005;-66
2022/09/27 06:31:07;;;;;;;1.42;0.68;;;;;;;;;;7389832;19;19994;-67
2022/09/27 06:33:34;;;;;;;2.20;0.63;;;;;;;;;;7391077;19;19994;-67
2022/09/27 06:36:07;;;;;;;1.13;0.70;;;;;;;;;;7392317;19;20011;-67
2022/09/27 06:38:33;;;;;;;0.75;0.60;;;;;;;;;;7396102;19;20018;-67
2022/09/27 06:41:03;;;;;;;0.55;0.55;;;;;;;;;;7396035;19;20556;-67
2022/09/27 06:43:29;;;;;;;0.30;0.30;;;;;;;;;;7397161;19;19998;-67
2022/09/27 06:45:54;;;;;;;0.70;0.70;;;;;;;;;;7399112;19;19995;-67
2022/09/27 06:48:20;;;;;;;1.25;0.85;;;;;;;;;;7393290;19;19991;-66
2022/09/27 06:50:47;;;;;;;3.65;0.98;;;;;;;;;;7394031;19;19990;-67
2022/09/27 06:53:15;;;;;;;0.93;0.80;;;;;;;;;;7396993;19;20002;-67
2022/09/27 06:55:40;;;;;;;0.85;0.65;;;;;;;;;;7398824;19;20069;-67
2022/09/27 07:01:07;;;;;;;0.50;0.50;;;;;;;;;;7391993;19;19999;-67
2022/09/27 07:03:34;;;;;;;2.75;0.80;;;;;;;;;;7396380;19;20058;-67
2022/09/27 07:06:05;;;;;;;1.75;0.65;;;;;;;;;;7396190;19;20134;-67
2022/09/27 07:08:30;;;;;;;0.57;0.40;;;;;;;;;;7392673;19;20563;-67
2022/09/27 07:11:04;;;;;;;1.75;0.70;;;;;;;;;;7393567;19;19999;-67
2022/09/27 07:13:31;;;;;;;0.75;0.68;;;;;;;;;;7395721;19;20090;-67
2022/09/27 07:15:57;;;;;;;1.67;0.65;;;;;;;;;;7397434;19;20080;-66
2022/09/27 07:18:23;;;;;;;1.10;0.60;;;;;;;;;;7393973;19;20107;-67
2022/09/27 07:20:49;;;;;;;0.55;0.55;;;;;;;;;;7394194;19;19998;-67
2022/09/27 07:23:15;;;;;;;0.60;0.60;;;;;;;;;;7395894;19;20492;-67
2022/09/27 07:25:41;;;;;;;0.68;0.68;;;;;;;;;;7395741;19;20002;-67
2022/09/27 07:28:14;;;;;;;0.40;0.40;;;;;;;;;;7395075;19;20001;-67
2022/09/27 07:30:40;;;;;;;1.10;0.63;;;;;;;;;;7395789;19;19994;-66
2022/09/27 07:33:06;;;;;;;1.90;0.70;;;;;;;;;;7393784;19;20067;-67
2022/09/27 07:35:32;;;;;;;2.70;0.70;;;;;;;;;;7396094;19;20003;-68
2022/09/27 07:37:57;;;;;;;1.25;0.60;;;;;;;;;;7396618;19;20058;-67
2022/09/27 07:40:24;;;;;;;2.17;0.60;;;;;;;;;;7394787;19;20003;-66
2022/09/27 07:42:56;;;;;;;0.65;0.63;;;;;;;;;;7391963;19;20516;-66
2022/09/27 07:45:22;;;;;;;0.77;0.70;;;;;;;;;;7393284;19;19990;-66
2022/09/27 07:47:47;;;;;;;0.55;0.52;;;;;;;;;;7393009;19;20381;-67
2022/09/27 07:50:13;;;;;;;2.25;0.90;;;;;;;;;;7396368;19;20078;-66
2022/09/27 07:52:44;;;;;;;0.70;0.70;;;;;;;;;;7390843;19;20006;-66
2022/09/27 07:55:10;;;;;;;0.98;0.75;;;;;;;;;;7393774;19;20493;-67
2022/09/27 07:57:37;;;;;;;3.08;0.77;;;;;;;;;;7396705;19;20337;-67
2022/09/27 08:00:04;;;;;;;0.47;0.47;;;;;;;;;;7395351;19;20005;-66
2022/09/27 08:02:31;;;;;;;1.23;0.65;;;;;;;;;;7390008;19;19999;-67
2022/09/27 08:04:57;;;;;;;1.52;0.88;;;;;;;;;;7391689;19;19999;-67
2022/09/27 08:07:23;;;;;;;1.35;0.77;;;;;;;;;;7395431;19;20002;-67
2022/09/27 08:09:48;;;;;;;0.90;0.70;;;;;;;;;;7396027;19;20001;-67
2022/09/27 08:12:15;;;;;;;2.58;0.80;;;;;;;;;;7394603;19;19997;-67
2022/09/27 08:14:40;;;;;;;2.17;0.68;;;;;;;;;;7393373;19;20392;-67
2022/09/27 08:17:08;;;;;;;3.25;1.00;;;;;;;;;;7393386;19;20003;-67
2022/09/27 08:19:34;;;;;;;5.32;2.25;;;;;;;;;;7394508;19;19998;-66
2022/09/27 08:21:59;;;;;;;2.25;0.90;;;;;;;;;;7391243;19;20409;-66
2022/09/27 08:24:25;;;;;;;1.73;0.90;;;;;;;;;;7392507;19;19999;-66
2022/09/27 08:26:50;;;;;;;0.50;0.50;;;;;;;;;;7392656;19;20007;-66
2022/09/27 08:29:16;;;;;;;0.70;0.70;;;;;;;;;;7392448;19;19998;-66
2022/09/27 08:31:41;;;;;;;0.85;0.70;;;;;;;;;;7391161;19;20015;-66
2022/09/27 08:34:06;;;;;;;3.67;0.70;;;;;;;;;;7394959;19;20012;-66
2022/09/27 08:36:34;;;;;;;1.15;0.77;;;;;;;;;;7393732;19;20354;-66
2022/09/27 08:39:00;;;;;;;1.08;0.80;;;;;;;;;;7405748;19;19998;-66
2022/09/27 08:41:38;;;;;;;0.73;0.60;;;;;;;;;;7392811;19;19998;-67
2022/09/27 08:44:33;;;;;;;0.80;0.80;;;;;;;;;;7395237;19;20385;-66
2022/09/27 08:47:17;;;;;;;1.42;0.82;;;;;;;;;;7392765;19;20386;-66
2022/09/27 08:49:50;;;;;;;2.72;0.90;;;;;;;;;;7394133;19;20010;-66
2022/09/27 08:52:27;;;;;;;1.08;0.70;;;;;;;;;;7392520;19;20005;-66
2022/09/27 08:54:55;;;;;;;1.83;0.75;;;;;;;;;;7392703;19;20002;-65
2022/09/27 08:57:23;;;;;;;1.45;0.73;;;;;;;;;;7393042;19;20020;-66
2022/09/27 09:00:11;;;;;;;3.40;1.05;;;;;;;;;;7389001;19;20006;-67
2022/09/27 09:02:36;;;;;;;0.55;0.40;;;;;;;;;;7390437;19;20432;-65
2022/09/27 09:05:09;;;;;;;0.75;0.52;;;;;;;;;;7391329;19;20002;-66
2022/09/27 09:08:02;;;;;;;1.58;0.68;;;;;;;;;;7391353;19;20003;-65
2022/09/27 09:13:23;;;;;;;7.68;4.15;;;;;;;;;;7392489;19;20474;-66
2022/09/27 09:15:54;;;;;;;10.27;1.40;;;;;;;;;;7391544;19;19999;-65
2022/09/27 09:18:33;;;;;;;5.03;1.83;;;;;;;;;;7390807;19;20149;-66
2022/09/27 09:21:20;;;;;;;1.08;0.70;;;;;;;;;;7390531;19;20069;-67
2022/09/27 09:23:56;;;;;;;0.93;0.60;;;;;;;;;;7393017;19;20031;-67
2022/09/27 09:26:33;;;;;;;1.60;0.63;;;;;;;;;;7385215;19;20006;-67
2022/09/27 09:29:20;;;;;;;1.17;0.70;;;;;;;;;;7389655;19;20002;-67
2022/09/27 09:32:39;;;;;;;0.82;0.60;;;;;;;;;;7391103;19;20515;-67
2022/09/27 09:35:46;;;;;;;1.85;0.63;;;;;;;;;;7386809;19;20006;-67
2022/09/27 09:38:37;;;;;;;0.60;0.60;;;;;;;;;;7392708;19;20003;-66
2022/09/27 09:41:14;;;;;;;1.17;0.95;;;;;;;;;;7391529;19;19999;-67
2022/09/27 09:43:47;;;;;;;15.10;7.18;;;;;;;;;;7392445;19;19999;-67
2022/09/27 09:46:29;;;;;;;1.25;1.15;;;;;;;;;;7392536;19;20065;-66
2022/09/27 09:49:09;;;;;;;3.40;0.60;;;;;;;;;;7386838;19;20007;-67
2022/09/27 09:51:43;;;;;;;1.42;1.00;;;;;;;;;;7389110;19;20003;-67
2022/09/27 09:54:21;;;;;;;1.33;0.45;;;;;;;;;;7393343;19;20019;-67
2022/09/27 09:56:58;;;;;;;0.85;0.52;;;;;;;;;;7389593;19;20024;-67
2022/09/27 09:59:34;;;;;;;0.55;0.55;;;;;;;;;;7391760;19;20024;-67
2022/09/27 10:02:17;;;;;;;1.23;0.60;;;;;;;;;;7390368;19;20028;-67
2022/09/27 10:04:43;;;;;;;0.60;0.60;;;;;;;;;;7389119;19;20424;-67
2022/09/27 10:07:08;;;;;;;0.43;0.43;;;;;;;;;;7389438;19;20007;-67
2022/09/27 10:09:35;;;;;;;0.57;0.47;;;;;;;;;;7388201;19;19994;-67
2022/09/27 10:12:00;;;;;;;0.52;0.52;;;;;;;;;;7387590;19;20367;-67
2022/09/27 10:14:26;;;;;;;2.83;0.47;;;;;;;;;;7387119;19;19999;-67
2022/09/27 10:16:58;;;;;;;0.90;0.75;;;;;;;;;;7389166;19;20027;-67
2022/09/27 10:19:32;;;;;;;1.08;0.50;;;;;;;;;;7390179;19;20013;-67
2022/09/27 10:22:09;;;;;;;1.77;0.60;;;;;;;;;;7389196;19;20392;-66
2022/09/27 10:24:57;;;;;;;23.25;11.02;;;;;;;;;;7387852;19;20366;-66
2022/09/27 10:27:25;;;;;;;1.42;0.93;;;;;;;;;;7387663;19;20014;-66
2022/09/27 10:29:59;;;;;;;3.05;1.60;;;;;;;;;;7390678;19;20007;-66
2022/09/27 10:32:34;;;;;;;1.02;0.82;;;;;;;;;;7383865;19;20108;-66
2022/09/27 10:35:27;;;;;;;0.73;0.73;;;;;;;;;;7387697;19;20031;-66
2022/09/27 10:37:53;;;;;;;1.27;0.60;;;;;;;;;;7390956;19;19998;-66
2022/09/27 10:40:29;;;;;;;0.75;0.52;;;;;;;;;;7385962;19;20291;-66
2022/09/27 10:42:54;;;;;;;2.05;0.80;;;;;;;;;;7385330;19;20006;-67
2022/09/27 10:45:23;;;;;;;1.35;0.82;;;;;;;;;;7389894;19;19999;-67
2022/09/27 10:47:48;;;;;;;2.08;0.90;;;;;;;;;;7388895;19;19998;-66
2022/09/27 10:50:29;;;;;;;2.20;0.90;;;;;;;;;;7389601;19;20027;-65
2022/09/27 10:53:02;;;;;;;2.40;1.10;;;;;;;;;;7386443;19;20007;-65
2022/09/27 10:55:31;;;;;;;16.65;7.32;;;;;;;;;;7389425;19;20006;-65
2022/09/27 10:57:56;;;;;;;1.48;0.90;;;;;;;;;;7389078;19;20393;-67
2022/09/27 11:00:23;;;;;;;1.73;0.85;;;;;;;;;;7387577;19;19998;-67
2022/09/27 11:02:54;;;;;;;2.35;1.15;;;;;;;;;;7384322;19;20063;-66
2022/09/27 11:05:22;;;;;;;2.55;0.82;;;;;;;;;;7388453;19;20003;-66
2022/09/27 11:07:53;;;;;;;3.60;1.00;;;;;;;;;;7387258;19;19995;-67
2022/09/27 11:10:27;;;;;;;0.70;0.60;;;;;;;;;;7385885;19;20009;-66
2022/09/27 11:13:18;;;;;;;0.82;0.82;;;;;;;;;;7385640;19;20475;-66
2022/09/27 11:16:08;;;;;;;1.20;0.73;;;;;;;;;;7389458;19;20041;-66
2022/09/27 11:19:04;;;;;;;0.75;0.70;;;;;;;;;;7387627;19;20022;-66
2022/09/27 11:21:40;;;;;;;1.00;0.90;;;;;;;;;;7388672;19;20374;-65
2022/09/27 11:24:42;;;;;;;3.55;1.20;;;;;;;;;;7397689;19;20015;-66
2022/09/27 11:27:29;;;;;;;2.17;1.08;;;;;;;;;;7394155;19;20002;-66
2022/09/27 11:30:11;;;;;;;5.18;1.00;;;;;;;;;;7396604;19;20389;-66
2022/09/27 11:32:52;;;;;;;1.88;0.90;;;;;;;;;;7391894;19;20100;-65
2022/09/27 11:35:32;;;;;;;2.72;1.20;;;;;;;;;;7395529;19;19999;-65
2022/09/27 11:38:45;;;;;;;3.03;1.20;;;;;;;;;;7396673;19;20480;-65
2022/09/27 11:41:49;;;;;;;3.05;1.00;;;;;;;;;;7389005;19;20013;-65
2022/09/27 11:44:48;;;;;;;1.42;0.90;;;;;;;;;;7392680;19;20005;-65
2022/09/27 11:47:28;;;;;;;3.58;1.50;;;;;;;;;;7392812;19;20003;-67
2022/09/27 11:50:12;;;;;;;1.52;0.93;;;;;;;;;;7394421;19;20503;-67
2022/09/27 11:52:54;;;;;;;3.35;1.30;;;;;;;;;;7391336;19;20042;-66
2022/09/27 11:55:46;;;;;;;1.80;1.25;;;;;;;;;;7383370;19;20002;-66
2022/09/27 11:58:23;;;;;;;2.00;1.27;;;;;;;;;;7384651;19;20070;-65
2022/09/27 12:01:02;;;;;;;2.75;1.10;;;;;;;;;;7393454;19;20376;-65
2022/09/27 12:04:02;;;;;;;2.08;1.05;;;;;;;;;;7395284;19;19999;-66
2022/09/27 12:06:52;;;;;;;3.88;1.33;;;;;;;;;;7391646;19;20009;-66
2022/09/27 12:09:22;;;;;;;1.65;1.10;;;;;;;;;;7394611;19;19994;-66
2022/09/27 12:11:53;;;;;;;1.95;0.90;;;;;;;;;;7393741;19;20013;-66
2022/09/27 12:14:18;;;;;;;;;;;;;;;;;;7392853;19;20528;-66
2022/09/27 12:16:45;;;;;;;1.55;0.88;;;;;;;;;;7392909;19;19927;-66
2022/09/27 12:19:34;;;;;;;3.30;1.25;;;;;;;;;;7394002;19;19998;-66
2022/09/27 12:22:04;;;;;;;2.50;1.20;;;;;;;;;;7393745;19;20006;-66
2022/09/27 12:24:31;;;;;;;1.08;1.05;;;;;;;;;;7396185;19;20006;-66
2022/09/27 12:27:02;;;;;;;4.05;1.23;;;;;;;;;;7393139;19;20031;-65
2022/09/27 12:29:32;;;;;;;4.32;1.10;;;;;;;;;;7392613;19;20007;-66
2022/09/27 12:32:09;;;;;;;31.80;15.07;;;;;;;;;;7393577;19;20003;-65
2022/09/27 12:34:45;;;;;;;1.88;1.20;;;;;;;;;;7390176;19;20005;-66
2022/09/27 12:37:24;;;;;;;1.95;1.13;;;;;;;;;;7393450;19;20454;-67
2022/09/27 12:40:02;;;;;;;2.83;1.15;;;;;;;;;;7392865;19;20006;-66
2022/09/27 12:42:44;;;;;;;2.30;1.17;;;;;;;;;;7390359;19;20002;-66
2022/09/27 12:45:14;;;;;;;0.90;0.80;;;;;;;;;;7393896;19;20028;-66
2022/09/27 12:48:04;;;;;;;3.63;1.20;;;;;;;;;;7390923;19;20465;-65
2022/09/27 12:50:41;;;;;;;1.43;0.97;;;;;;;;;;7392067;19;20002;-66
2022/09/27 12:53:22;;;;;;;1.33;0.88;;;;;;;;;;7393386;19;20823;-65
2022/09/27 12:56:10;;;;;;;3.55;1.13;;;;;;;;;;7396736;19;19998;-70
2022/09/27 12:58:53;;;;;;;4.68;1.30;;;;;;;;;;7394068;19;20002;-66
2022/09/27 13:01:43;;;;;;;2.25;1.20;;;;;;;;;;7393628;19;20007;-65
2022/09/27 13:04:40;;;;;;;1.73;1.10;;;;;;;;;;7394999;19;20002;-66
2022/09/27 13:07:05;;;;;;;3.55;1.30;;;;;;;;;;7390426;19;20017;-65
2022/09/27 13:10:13;;;;;;;1.23;0.80;;;;;;;;;;7393370;19;20005;-65
2022/09/27 13:12:46;;;;;;;0.70;0.70;;;;;;;;;;7387344;19;20263;-65
2022/09/27 13:15:32;;;;;;;1.85;0.90;;;;;;;;;;7389759;19;20369;-65
2022/09/27 13:18:00;;;;;;;2.75;0.70;;;;;;;;;;7393054;19;20065;-65
2022/09/27 13:20:34;;;;;;;0.40;0.40;;;;;;;;;;7389209;19;20338;-66
2022/09/27 13:23:03;;;;;;;1.17;0.50;;;;;;;;;;7391139;19;20493;-66
2022/09/27 13:25:48;;;;;;;1.23;0.80;;;;;;;;;;7390698;19;20033;-67
2022/09/27 13:28:30;;;;;;;1.25;0.75;;;;;;;;;;7392453;19;19994;-66
2022/09/27 13:31:07;;;;;;;1.27;0.80;;;;;;;;;;7390142;19;20027;-66
2022/09/27 13:33:48;;;;;;;2.08;0.70;;;;;;;;;;7392716;19;20002;-66
2022/09/27 13:36:25;;;;;;;1.23;0.90;;;;;;;;;;7394056;19;20006;-66
2022/09/27 13:39:05;;;;;;;0.70;0.68;;;;;;;;;;7391129;19;20082;-66
2022/09/27 13:42:07;;;;;;;3.13;1.47;;;;;;;;;;7391843;19;20074;-66
2022/09/27 13:44:49;;;;;;;2.55;1.17;;;;;;;;;;7388742;19;20003;-66
2022/09/27 13:47:24;;;;;;;3.53;1.00;;;;;;;;;;7391330;19;20002;-66
2022/09/27 13:49:57;;;;;;;0.80;0.80;;;;;;;;;;7393223;19;20066;-65
2022/09/27 13:52:34;;;;;;;0.68;0.68;;;;;;;;;;7391328;19;20019;-65
2022/09/27 13:55:03;;;;;;;2.13;1.00;;;;;;;;;;7392569;19;20023;-66
2022/09/27 13:57:55;;;;;;;1.20;0.70;;;;;;;;;;7390464;19;20074;-64
2022/09/27 14:00:23;;;;;;;1.00;0.70;;;;;;;;;;7389208;19;20003;-65
2022/09/27 14:02:50;;;;;;;1.00;0.90;;;;;;;;;;7387854;19;20014;-65
2022/09/27 14:05:20;;;;;;;1.52;1.08;;;;;;;;;;7391107;19;20006;-66
2022/09/27 14:07:49;;;;;;;2.28;1.10;;;;;;;;;;7392549;19;20002;-65
2022/09/27 14:10:20;;;;;;;1.95;0.88;;;;;;;;;;7391698;19;19998;-66
2022/09/27 14:12:46;;;;;;;;;;;;;;;;;;7389476;19;20476;-68
2022/09/27 14:15:22;;;;;;;1.45;0.90;;;;;;;;;;7391601;19;19994;-66
2022/09/27 14:17:48;;;;;;;1.48;0.95;;;;;;;;;;7391902;19;19999;-66
2022/09/27 14:20:37;;;;;;;1.58;1.00;;;;;;;;;;7392409;19;20066;-66
2022/09/27 14:23:03;;;;;;;2.85;1.20;;;;;;;;;;7390773;19;20006;-65
2022/09/27 14:25:29;;;;;;;1.77;1.02;;;;;;;;;;7391204;19;20030;-66
2022/09/27 14:27:54;;;;;;;1.23;0.98;;;;;;;;;;7390401;19;19999;-66
2022/09/27 14:30:22;;;;;;;6.75;1.27;;;;;;;;;;7388331;19;20009;-66
2022/09/27 14:32:49;;;;;;;1.13;0.93;;;;;;;;;;7386972;19;20007;-66
2022/09/27 14:38:04;;;;;;;3.53;1.20;;;;;;;;;;7391295;19;20023;-67
2022/09/27 14:40:37;;;;;;;1.35;1.00;;;;;;;;;;7389789;19;20348;-67
2022/09/27 14:43:03;;;;;;;0.88;0.88;;;;;;;;;;7390892;19;20010;-66
2022/09/27 14:45:35;;;;;;;0.90;0.90;;;;;;;;;;7390218;19;20030;-66
2022/09/27 14:48:16;;;;;;;1.20;0.90;;;;;;;;;;7389147;19;19995;-66
2022/09/27 14:50:53;;;;;;;1.70;0.98;;;;;;;;;;7387680;19;20461;-66
2022/09/27 14:53:23;;;;;;;2.80;0.90;;;;;;;;;;7389519;19;20353;-66
2022/09/27 14:55:49;;;;;;;1.15;0.90;;;;;;;;;;7390249;19;20023;-66
2022/09/27 14:58:15;;;;;;;1.83;0.90;;;;;;;;;;7394295;19;20003;-66
2022/09/27 15:00:46;;;;;;;1.77;0.80;;;;;;;;;;7394355;19;20030;-66
2022/09/27 15:03:19;;;;;;;1.02;0.90;;;;;;;;;;7395011;19;20003;-65
2022/09/27 15:05:44;;;;;;;4.40;0.90;;;;;;;;;;7397287;19;20010;-66
2022/09/27 15:08:11;;;;;;;3.65;1.83;;;;;;;;;;7394610;19;19998;-65
2022/09/27 15:10:37;;;;;;;6.55;3.58;;;;;;;;;;7394699;19;20009;-67
2022/09/27 15:13:04;;;;;;;5.70;1.52;;;;;;;;;;7395403;19;20085;-66
2022/09/27 15:15:33;;;;;;;1.70;0.90;;;;;;;;;;7396445;19;19998;-66
2022/09/27 15:17:59;;;;;;;1.58;1.08;;;;;;;;;;7392747;19;20003;-66
2022/09/27 15:20:30;;;;;;;2.17;1.35;;;;;;;;;;7389665;19;20456;-66
2022/09/27 15:23:04;;;;;;;2.45;1.17;;;;;;;;;;7387931;19;20002;-66
2022/09/27 15:25:41;;;;;;;2.35;0.98;;;;;;;;;;7393032;19;20019;-65